This is the latest recevied weather packets stored in our database for station/object KM4KBD. If no packets are shown the sender has not sent any weather packets the latest 10 day(s).
| Time | Temp. | Humidity | Pressure | Rain* | Wind** | Luminosity | Snow |
|---|---|---|---|---|---|---|---|
| 1777159138 | 23.89° C | 52% | 1016 hPa | 0 mm | - | 65 W/m² | - |
| 1777158836 | 23.89° C | 53% | 1015.8 hPa | 0 mm | - | 70 W/m² | - |
| 1777158535 | 24.44° C | 52% | 1016 hPa | 0 mm | - | 80 W/m² | - |
| 1777158230 | 24.44° C | 52% | 1016.2 hPa | 0 mm | - | 90 W/m² | - |
| 1777157925 | 24.44° C | 51% | 1015.9 hPa | 0 mm | - | 99 W/m² | - |
| 1777157622 | 24.44° C | 52% | 1015.9 hPa | 0 mm | - | 106 W/m² | - |
| 1777157319 | 25° C | 52% | 1015.8 hPa | 0 mm | - | 118 W/m² | - |
| 1777157018 | 25° C | 51% | 1015.9 hPa | 0 mm | - | 126 W/m² | - |
| 1777156713 | 25.56° C | 50% | 1016 hPa | 0 mm | - | 143 W/m² | - |
| 1777156410 | 25.56° C | 53% | 1015.9 hPa | 0 mm | - | 177 W/m² | - |
| 1777156106 | 25° C | 50% | 1016 hPa | 0 mm | - | 182 W/m² | - |
| 1777155803 | 25° C | 51% | 1016 hPa | 0 mm | - | 192 W/m² | - |
| 1777155503 | 24.44° C | 52% | 1015.9 hPa | 0 mm | - | 201 W/m² | - |
| 1777155201 | 24.44° C | 53% | 1016 hPa | 0 mm | - | 213 W/m² | - |
| 1777154898 | 25° C | 52% | 1016 hPa | 0 mm | - | 79 W/m² | - |
| 1777154594 | 25° C | 53% | 1016.1 hPa | 0 mm | - | 236 W/m² | - |
| 1777154290 | 23.89° C | 54% | 1015.9 hPa | 0 mm | - | 257 W/m² | - |
| 1777153986 | 23.89° C | 55% | 1015.9 hPa | 0 mm | - | 79 W/m² | - |
| 1777153681 | 25° C | 53% | 1015.8 hPa | 0 mm | - | 107 W/m² | - |
| 1777153379 | 24.44° C | 55% | 1016 hPa | 0 mm | - | 317 W/m² | - |
| 1777153074 | 25° C | 52% | 1016 hPa | 0 mm | - | 133 W/m² | - |
| 1777152771 | 24.44° C | 52% | 1015.6 hPa | 0 mm | - | 362 W/m² | - |
| 1777152468 | 23.89° C | 54% | 1015.9 hPa | 0 mm | - | 357 W/m² | - |
| 1777152164 | 24.44° C | 54% | 1015.7 hPa | 0 mm | - | 84 W/m² | - |
| 1777151859 | 25.56° C | 50% | 1016 hPa | 0 mm | - | 89 W/m² | - |
* Rain latest hour (hover to see other rain measurements)
** Current wind speed in m/s (hover to see current wind gust speed)